Time;durP1;ratioP1;P1;durP2;ratioP2;P2;SDS_P1;SDS_P2;PMS_P1;PMS_P2;Temp;Humidity;BMP_temperature;BMP_pressure;BME280_temperature;BME280_humidity;BME280_pressure;Samples;Min_cycle;Max_cycle;Signal;HPM_P1;HPM_P2
2023/11/30 00:01:49;;;;;;;42.13;15.73;;;;;;;;;;5842245;28;20042;-71
2023/11/30 00:04:39;;;;;;;40.10;15.98;;;;;;;;;;5842302;28;20113;-71
2023/11/30 00:07:30;;;;;;;30.25;12.27;;;;;;;;;;5841981;28;20041;-71
2023/11/30 00:10:21;;;;;;;24.08;10.35;;;;;;;;;;5842276;28;20060;-71
2023/11/30 00:13:12;;;;;;;41.05;12.77;;;;;;;;;;5842031;28;20050;-71
2023/11/30 00:16:03;;;;;;;21.35;10.13;;;;;;;;;;5840537;28;20069;-72
2023/11/30 00:18:53;;;;;;;26.40;10.10;;;;;;;;;;5841075;28;20050;-71
2023/11/30 00:21:44;;;;;;;20.42;10.00;;;;;;;;;;5841806;28;20061;-71
2023/11/30 00:24:35;;;;;;;38.70;12.13;;;;;;;;;;5840479;28;20037;-71
2023/11/30 00:27:26;;;;;;;33.33;11.85;;;;;;;;;;5841739;28;20049;-71
2023/11/30 00:30:17;;;;;;;26.13;11.77;;;;;;;;;;5841681;28;20062;-71
2023/11/30 00:33:07;;;;;;;43.50;15.57;;;;;;;;;;5841349;28;20148;-71
2023/11/30 00:35:58;;;;;;;71.93;18.67;;;;;;;;;;5841999;28;20057;-71
2023/11/30 00:38:49;;;;;;;33.40;12.15;;;;;;;;;;5840339;28;20123;-71
2023/11/30 00:41:40;;;;;;;39.50;12.35;;;;;;;;;;5841294;28;20073;-71
2023/11/30 00:44:30;;;;;;;38.85;12.63;;;;;;;;;;5840098;28;20042;-71
2023/11/30 00:47:21;;;;;;;20.88;9.50;;;;;;;;;;5841420;28;20135;-71
2023/11/30 00:50:12;;;;;;;30.83;10.35;;;;;;;;;;5839786;28;20061;-71
2023/11/30 00:53:03;;;;;;;20.10;9.93;;;;;;;;;;5841198;28;20056;-72
2023/11/30 00:55:54;;;;;;;22.70;9.00;;;;;;;;;;5841176;28;20066;-71
2023/11/30 00:58:44;;;;;;;18.65;8.68;;;;;;;;;;5839736;28;20048;-71
2023/11/30 01:01:35;;;;;;;12.20;7.20;;;;;;;;;;5829610;28;20515;-71
2023/11/30 01:04:26;;;;;;;33.67;11.55;;;;;;;;;;5799383;28;20466;-72
2023/11/30 01:07:17;;;;;;;24.95;7.93;;;;;;;;;;5826198;28;20193;-71
2023/11/30 01:10:08;;;;;;;22.08;8.73;;;;;;;;;;5826291;28;20535;-71
2023/11/30 01:12:59;;;;;;;17.65;8.63;;;;;;;;;;5795778;28;20047;-72
2023/11/30 01:15:49;;;;;;;23.33;9.30;;;;;;;;;;5794883;28;20062;-72
2023/11/30 01:18:40;;;;;;;21.15;9.45;;;;;;;;;;5795151;28;20042;-71
2023/11/30 01:21:31;;;;;;;19.45;9.85;;;;;;;;;;5825935;28;20178;-71
2023/11/30 01:24:23;;;;;;;18.52;7.70;;;;;;;;;;5825719;28;20054;-71
2023/11/30 01:27:15;;;;;;;10.60;5.88;;;;;;;;;;5794979;28;20480;-71
2023/11/30 01:30:07;;;;;;;17.23;7.95;;;;;;;;;;5794798;28;20046;-72
2023/11/30 01:32:58;;;;;;;26.15;8.43;;;;;;;;;;5795005;28;20046;-71
2023/11/30 01:35:49;;;;;;;18.50;7.20;;;;;;;;;;5809318;28;20043;-71
2023/11/30 01:38:40;;;;;;;10.98;6.55;;;;;;;;;;5794782;28;20043;-72
2023/11/30 01:41:31;;;;;;;14.43;6.45;;;;;;;;;;5793242;28;20500;-71
2023/11/30 01:44:21;;;;;;;10.70;6.72;;;;;;;;;;5794453;28;20050;-72
2023/11/30 01:47:12;;;;;;;15.55;7.13;;;;;;;;;;5794375;28;20051;-72
2023/11/30 01:50:03;;;;;;;15.45;5.90;;;;;;;;;;5794518;28;20047;-72
2023/11/30 01:52:55;;;;;;;11.48;6.28;;;;;;;;;;5825911;28;20051;-72
2023/11/30 01:55:45;;;;;;;15.13;4.38;;;;;;;;;;5825143;28;20573;-71
2023/11/30 01:58:36;;;;;;;8.60;5.70;;;;;;;;;;5825196;28;20057;-71
2023/11/30 02:01:27;;;;;;;8.50;6.10;;;;;;;;;;5794069;28;20042;-71
2023/11/30 02:04:21;;;;;;;14.95;6.30;;;;;;;;;;5824897;28;20480;-72
2023/11/30 02:07:12;;;;;;;13.63;5.68;;;;;;;;;;5794174;28;20113;-72
2023/11/30 02:10:03;;;;;;;10.98;6.13;;;;;;;;;;5794052;28;20051;-72
2023/11/30 02:12:53;;;;;;;11.32;5.57;;;;;;;;;;5825407;28;20433;-71
2023/11/30 02:15:44;;;;;;;11.95;6.00;;;;;;;;;;5793994;28;20493;-71
2023/11/30 02:18:35;;;;;;;8.90;5.35;;;;;;;;;;5792928;28;20064;-71
2023/11/30 02:21:26;;;;;;;16.15;6.95;;;;;;;;;;5793855;28;20045;-71
2023/11/30 02:24:17;;;;;;;17.33;7.80;;;;;;;;;;5793951;28;20058;-71
2023/11/30 02:27:08;;;;;;;18.25;7.50;;;;;;;;;;5793868;28;20078;-71
2023/11/30 02:29:59;;;;;;;13.80;7.30;;;;;;;;;;5825281;28;20053;-71
2023/11/30 02:32:49;;;;;;;11.27;5.53;;;;;;;;;;5824578;28;20066;-71
2023/11/30 02:35:40;;;;;;;22.17;5.53;;;;;;;;;;5793782;28;20169;-71
2023/11/30 02:38:31;;;;;;;11.05;4.25;;;;;;;;;;5808345;28;20043;-71
2023/11/30 02:41:22;;;;;;;26.17;4.82;;;;;;;;;;5792444;28;20047;-71
2023/11/30 02:44:13;;;;;;;10.88;4.70;;;;;;;;;;5824692;28;20074;-72
2023/11/30 02:47:03;;;;;;;11.32;5.50;;;;;;;;;;5824642;28;20043;-72
2023/11/30 02:49:54;;;;;;;8.90;5.68;;;;;;;;;;5794292;28;20062;-71
2023/11/30 02:52:45;;;;;;;13.57;5.13;;;;;;;;;;5793683;28;20042;-71
2023/11/30 02:55:36;;;;;;;11.02;6.30;;;;;;;;;;5808133;28;20046;-71
2023/11/30 02:58:26;;;;;;;12.05;5.13;;;;;;;;;;5793379;28;20039;-71
2023/11/30 03:01:17;;;;;;;9.38;6.10;;;;;;;;;;5824294;28;20065;-71
2023/11/30 03:04:08;;;;;;;8.63;5.85;;;;;;;;;;5808254;28;20206;-72
2023/11/30 03:06:59;;;;;;;14.40;6.60;;;;;;;;;;5792344;28;20086;-71
2023/11/30 03:09:49;;;;;;;10.18;3.97;;;;;;;;;;5824429;28;20039;-71
2023/11/30 03:12:40;;;;;;;10.70;4.57;;;;;;;;;;5824155;28;20051;-71
2023/11/30 03:15:31;;;;;;;11.80;4.95;;;;;;;;;;5826789;28;20045;-71
2023/11/30 03:18:22;;;;;;;15.98;6.20;;;;;;;;;;5797661;28;20205;-71
2023/11/30 03:21:17;;;;;;;14.00;6.78;;;;;;;;;;5797667;28;20484;-72
2023/11/30 03:24:08;;;;;;;8.38;4.25;;;;;;;;;;5797643;28;20510;-71
2023/11/30 03:26:59;;;;;;;7.65;3.95;;;;;;;;;;5828783;28;20051;-71
2023/11/30 03:29:49;;;;;;;10.60;5.63;;;;;;;;;;5797781;28;20423;-71
2023/11/30 03:32:40;;;;;;;8.68;3.45;;;;;;;;;;5796006;28;20061;-71
2023/11/30 03:35:31;;;;;;;10.75;5.45;;;;;;;;;;5797397;28;20043;-71
2023/11/30 03:38:22;;;;;;;4.85;3.63;;;;;;;;;;5812056;28;20496;-72
2023/11/30 03:41:12;;;;;;;12.30;4.93;;;;;;;;;;5795837;28;20057;-71
2023/11/30 03:44:03;;;;;;;7.30;3.97;;;;;;;;;;5797286;28;20047;-72
2023/11/30 03:46:54;;;;;;;8.73;3.95;;;;;;;;;;5797553;28;20457;-71
2023/11/30 03:49:45;;;;;;;7.50;3.55;;;;;;;;;;5797039;28;20045;-71
2023/11/30 03:52:36;;;;;;;7.45;4.53;;;;;;;;;;5828080;28;20396;-71
2023/11/30 03:55:27;;;;;;;6.97;5.40;;;;;;;;;;5797089;28;20429;-71
2023/11/30 03:58:17;;;;;;;8.40;4.72;;;;;;;;;;5796824;28;20428;-72
2023/11/30 04:01:08;;;;;;;12.15;3.97;;;;;;;;;;5796770;28;20057;-71
2023/11/30 04:03:59;;;;;;;8.13;3.65;;;;;;;;;;5811997;28;20053;-71
2023/11/30 04:06:50;;;;;;;6.18;3.88;;;;;;;;;;5811321;28;20047;-72
2023/11/30 04:09:41;;;;;;;9.13;4.13;;;;;;;;;;5827589;28;20076;-71
2023/11/30 04:12:32;;;;;;;7.85;4.35;;;;;;;;;;5796722;28;20058;-72
2023/11/30 04:15:23;;;;;;;11.80;4.40;;;;;;;;;;5811225;28;20583;-71
2023/11/30 04:18:14;;;;;;;9.60;4.00;;;;;;;;;;5827401;28;20082;-72
2023/11/30 04:21:05;;;;;;;10.18;4.78;;;;;;;;;;5794847;28;20062;-72
2023/11/30 04:23:56;;;;;;;4.80;3.08;;;;;;;;;;5796931;28;20038;-72
2023/11/30 04:26:47;;;;;;;6.25;3.50;;;;;;;;;;5796151;28;20121;-72
2023/11/30 04:29:38;;;;;;;8.35;4.22;;;;;;;;;;5811209;28;20054;-72
2023/11/30 04:32:28;;;;;;;7.70;3.67;;;;;;;;;;5796128;28;20389;-71
2023/11/30 04:35:19;;;;;;;7.30;3.60;;;;;;;;;;5826990;28;20132;-72
2023/11/30 04:38:10;;;;;;;6.07;4.22;;;;;;;;;;5810732;28;20051;-72
2023/11/30 04:41:00;;;;;;;11.90;5.75;;;;;;;;;;5826849;28;20047;-72
2023/11/30 04:43:51;;;;;;;9.30;4.80;;;;;;;;;;5796402;28;20043;-72
2023/11/30 04:46:42;;;;;;;5.85;3.45;;;;;;;;;;5810507;28;20076;-72
2023/11/30 04:49:33;;;;;;;7.68;4.82;;;;;;;;;;5795711;28;20421;-72
2023/11/30 04:52:24;;;;;;;5.03;3.72;;;;;;;;;;5810291;28;20053;-72
2023/11/30 04:55:15;;;;;;;7.82;3.53;;;;;;;;;;5795712;28;20066;-72
2023/11/30 04:58:05;;;;;;;7.45;3.95;;;;;;;;;;5794245;28;20051;-72
2023/11/30 05:00:56;;;;;;;8.77;4.15;;;;;;;;;;5826926;28;20062;-72
2023/11/30 05:03:47;;;;;;;11.32;4.43;;;;;;;;;;5826381;28;20054;-72
2023/11/30 05:06:38;;;;;;;8.77;4.82;;;;;;;;;;5795292;28;20046;-72
2023/11/30 05:09:29;;;;;;;7.05;3.83;;;;;;;;;;5795343;28;20043;-72
2023/11/30 05:12:20;;;;;;;8.90;4.63;;;;;;;;;;5809969;28;20058;-72
2023/11/30 05:15:11;;;;;;;8.80;4.82;;;;;;;;;;5809923;28;20098;-72
2023/11/30 05:18:02;;;;;;;9.15;5.03;;;;;;;;;;5795138;28;20049;-73
2023/11/30 05:20:52;;;;;;;10.55;5.88;;;;;;;;;;5795457;28;20047;-72
2023/11/30 05:23:43;;;;;;;9.70;5.90;;;;;;;;;;5795010;28;20047;-72
2023/11/30 05:26:34;;;;;;;11.45;7.00;;;;;;;;;;5794935;28;20039;-72
2023/11/30 05:29:25;;;;;;;14.07;6.30;;;;;;;;;;5825769;28;20042;-72
2023/11/30 05:32:16;;;;;;;20.38;7.78;;;;;;;;;;5825591;28;20069;-72
2023/11/30 05:35:07;;;;;;;12.55;5.95;;;;;;;;;;5809452;28;20066;-72
2023/11/30 05:37:58;;;;;;;15.18;7.72;;;;;;;;;;5794467;28;20046;-72
2023/11/30 05:40:49;;;;;;;11.30;6.00;;;;;;;;;;5794483;28;20536;-72
2023/11/30 05:43:40;;;;;;;12.35;5.53;;;;;;;;;;5809330;28;20043;-72
2023/11/30 05:46:31;;;;;;;9.45;5.03;;;;;;;;;;5794531;28;20047;-72
2023/11/30 05:49:22;;;;;;;11.55;4.53;;;;;;;;;;5825285;28;20066;-72
2023/11/30 05:52:13;;;;;;;12.05;5.07;;;;;;;;;;5825256;28;20055;-72
2023/11/30 05:55:10;;;;;;;8.77;4.15;;;;;;;;;;5794495;28;20394;-73
2023/11/30 05:58:01;;;;;;;11.68;3.40;;;;;;;;;;5792904;28;20039;-73
2023/11/30 06:00:52;;;;;;;9.38;4.85;;;;;;;;;;5825598;28;20047;-72
2023/11/30 06:03:42;;;;;;;10.43;5.50;;;;;;;;;;5825114;28;20413;-72
2023/11/30 06:06:33;;;;;;;15.40;6.63;;;;;;;;;;5792889;28;20485;-72
2023/11/30 06:09:24;;;;;;;12.57;6.45;;;;;;;;;;5808749;28;20046;-73
2023/11/30 06:12:15;;;;;;;11.45;5.43;;;;;;;;;;5793981;28;20058;-72
2023/11/30 06:15:06;;;;;;;22.45;7.40;;;;;;;;;;5824841;28;20087;-72
2023/11/30 06:17:57;;;;;;;11.90;4.50;;;;;;;;;;5794217;28;20072;-72
2023/11/30 06:20:48;;;;;;;6.93;5.03;;;;;;;;;;5793976;28;20055;-72
2023/11/30 06:23:39;;;;;;;11.00;4.32;;;;;;;;;;5794004;28;20051;-72
2023/11/30 06:26:30;;;;;;;6.93;4.53;;;;;;;;;;5793792;28;20051;-72
2023/11/30 06:29:21;;;;;;;9.63;5.20;;;;;;;;;;5793894;28;20365;-72
2023/11/30 06:32:12;;;;;;;6.43;4.47;;;;;;;;;;5808357;28;20051;-72
2023/11/30 06:35:04;;;;;;;12.35;6.65;;;;;;;;;;5824610;28;20050;-73
2023/11/30 06:37:55;;;;;;;14.15;6.10;;;;;;;;;;5792583;28;20047;-72
2023/11/30 06:40:47;;;;;;;12.35;4.63;;;;;;;;;;5824483;28;20051;-72
2023/11/30 06:43:42;;;;;;;18.33;6.20;;;;;;;;;;5793687;28;20079;-72
2023/11/30 06:46:33;;;;;;;14.02;5.93;;;;;;;;;;5793602;28;20058;-73
2023/11/30 06:49:23;;;;;;;9.32;4.93;;;;;;;;;;5826962;28;20182;-73
2023/11/30 06:52:15;;;;;;;11.88;5.82;;;;;;;;;;5812875;28;20055;-73
2023/11/30 06:55:06;;;;;;;9.20;5.15;;;;;;;;;;5798140;28;20059;-73
2023/11/30 06:57:57;;;;;;;14.95;5.03;;;;;;;;;;5798714;28;20042;-72
2023/11/30 07:00:49;;;;;;;11.40;5.38;;;;;;;;;;5797840;28;20046;-72
2023/11/30 07:03:40;;;;;;;8.18;5.18;;;;;;;;;;5798211;28;20049;-72
2023/11/30 07:06:33;;;;;;;10.25;4.68;;;;;;;;;;5798069;28;20055;-72
2023/11/30 07:09:24;;;;;;;10.45;5.80;;;;;;;;;;5797837;28;20054;-73
2023/11/30 07:12:15;;;;;;;16.73;6.47;;;;;;;;;;5812604;28;20078;-73
2023/11/30 07:15:07;;;;;;;16.15;7.47;;;;;;;;;;5828368;28;20062;-72
2023/11/30 07:17:58;;;;;;;21.10;5.22;;;;;;;;;;5796771;28;20133;-73
2023/11/30 07:20:49;;;;;;;21.15;6.82;;;;;;;;;;5828601;28;20566;-72
2023/11/30 07:23:40;;;;;;;21.60;7.38;;;;;;;;;;5828589;28;20408;-73
2023/11/30 07:26:30;;;;;;;16.52;7.30;;;;;;;;;;5828099;28;20500;-73
2023/11/30 07:29:21;;;;;;;17.33;7.93;;;;;;;;;;5797289;28;20058;-73
2023/11/30 07:32:16;;;;;;;22.60;6.93;;;;;;;;;;5826575;28;20185;-72
2023/11/30 07:35:07;;;;;;;17.80;7.97;;;;;;;;;;5797218;28;20051;-73
2023/11/30 07:37:58;;;;;;;31.25;10.27;;;;;;;;;;5797702;28;20086;-73
2023/11/30 07:40:49;;;;;;;31.50;10.57;;;;;;;;;;5797046;28;20420;-73
2023/11/30 07:43:40;;;;;;;19.70;8.40;;;;;;;;;;5797238;28;20389;-72
2023/11/30 07:46:31;;;;;;;27.15;9.60;;;;;;;;;;5796991;28;20046;-73
2023/11/30 07:49:22;;;;;;;32.85;8.88;;;;;;;;;;5796965;28;20102;-73
2023/11/30 07:52:13;;;;;;;19.38;8.32;;;;;;;;;;5827846;28;20047;-73
2023/11/30 07:55:04;;;;;;;13.32;7.63;;;;;;;;;;5827586;28;20050;-73
2023/11/30 07:57:56;;;;;;;15.90;7.38;;;;;;;;;;5797270;28;20501;-73
2023/11/30 08:00:46;;;;;;;20.05;7.72;;;;;;;;;;5810743;28;20408;-73
2023/11/30 08:03:37;;;;;;;12.82;6.88;;;;;;;;;;5796608;28;20042;-73
2023/11/30 08:06:28;;;;;;;16.88;9.70;;;;;;;;;;5796462;28;20136;-73
2023/11/30 08:09:20;;;;;;;16.00;7.95;;;;;;;;;;5796605;28;20132;-73
2023/11/30 08:12:10;;;;;;;20.73;9.05;;;;;;;;;;5796470;28;20050;-73
2023/11/30 08:15:03;;;;;;;22.20;7.18;;;;;;;;;;5796437;28;20073;-74
2023/11/30 08:17:54;;;;;;;13.82;7.05;;;;;;;;;;5796944;28;20530;-73
2023/11/30 08:20:44;;;;;;;13.82;7.38;;;;;;;;;;5827366;28;20058;-73
2023/11/30 08:23:37;;;;;;;19.52;8.18;;;;;;;;;;5796466;28;20050;-73
2023/11/30 08:26:28;;;;;;;10.25;6.40;;;;;;;;;;5796600;28;20386;-73
2023/11/30 08:29:18;;;;;;;6.75;4.45;;;;;;;;;;5827326;28;20057;-73
2023/11/30 08:32:10;;;;;;;4.38;3.28;;;;;;;;;;5796295;28;20055;-72
2023/11/30 08:35:01;;;;;;;7.57;5.47;;;;;;;;;;5811068;28;20049;-73
2023/11/30 08:37:52;;;;;;;13.45;3.65;;;;;;;;;;5796476;28;20042;-72
2023/11/30 08:40:43;;;;;;;11.07;5.50;;;;;;;;;;5810958;28;20070;-72
2023/11/30 08:43:33;;;;;;;5.57;3.28;;;;;;;;;;5795897;28;20058;-72
2023/11/30 08:46:24;;;;;;;7.05;5.30;;;;;;;;;;5826815;28;20049;-72
2023/11/30 08:49:15;;;;;;;6.63;3.88;;;;;;;;;;5810787;28;20126;-73
2023/11/30 08:52:06;;;;;;;8.02;3.40;;;;;;;;;;5828198;28;20058;-73
2023/11/30 08:54:57;;;;;;;18.65;6.05;;;;;;;;;;5796383;28;20047;-73
2023/11/30 08:57:48;;;;;;;20.23;6.82;;;;;;;;;;5795643;28;20047;-73
2023/11/30 09:00:40;;;;;;;8.32;6.53;;;;;;;;;;5810508;28;20070;-73
2023/11/30 09:03:31;;;;;;;21.65;8.50;;;;;;;;;;5795424;28;20624;-73
2023/11/30 09:06:23;;;;;;;20.50;8.23;;;;;;;;;;5826409;28;20051;-73
2023/11/30 09:09:14;;;;;;;16.60;8.55;;;;;;;;;;5795563;28;20058;-73
2023/11/30 09:12:05;;;;;;;23.23;8.68;;;;;;;;;;5825015;28;20159;-73
2023/11/30 09:14:57;;;;;;;17.13;7.22;;;;;;;;;;5795693;28;20038;-73
2023/11/30 09:17:48;;;;;;;13.77;9.82;;;;;;;;;;5795377;28;20049;-72
2023/11/30 09:20:38;;;;;;;19.58;11.85;;;;;;;;;;5795145;28;20050;-73
2023/11/30 09:23:29;;;;;;;17.77;9.82;;;;;;;;;;5826218;28;20174;-73
2023/11/30 09:26:21;;;;;;;19.50;10.75;;;;;;;;;;5795231;28;20058;-73
2023/11/30 09:29:12;;;;;;;21.42;10.75;;;;;;;;;;5825532;28;20460;-73
2023/11/30 09:32:04;;;;;;;15.98;10.50;;;;;;;;;;5825677;28;20061;-72
2023/11/30 09:34:54;;;;;;;36.83;17.50;;;;;;;;;;5826082;28;20046;-73
2023/11/30 09:37:48;;;;;;;24.88;13.40;;;;;;;;;;5794627;28;20043;-73
2023/11/30 09:40:39;;;;;;;18.73;9.95;;;;;;;;;;5825205;28;20381;-72
2023/11/30 09:43:30;;;;;;;22.63;10.65;;;;;;;;;;5825328;28;20054;-72
2023/11/30 09:46:21;;;;;;;15.75;7.40;;;;;;;;;;5825293;28;20050;-73
2023/11/30 09:49:11;;;;;;;13.40;6.45;;;;;;;;;;5825649;28;20054;-73
2023/11/30 09:52:02;;;;;;;8.00;4.75;;;;;;;;;;5826276;28;20050;-73
2023/11/30 09:54:59;;;;;;;12.63;8.25;;;;;;;;;;5826219;28;20719;-73
2023/11/30 09:57:49;;;;;;;10.32;5.00;;;;;;;;;;5793654;28;20164;-73
2023/11/30 10:00:40;;;;;;;11.57;4.68;;;;;;;;;;5825995;28;20051;-73
2023/11/30 10:03:32;;;;;;;6.25;3.85;;;;;;;;;;5825603;28;20456;-73
2023/11/30 10:06:23;;;;;;;7.40;3.45;;;;;;;;;;5808885;28;20131;-73
2023/11/30 10:09:15;;;;;;;5.00;3.38;;;;;;;;;;5825501;28;20152;-72
2023/11/30 10:12:07;;;;;;;13.02;5.43;;;;;;;;;;5808780;28;20141;-73
2023/11/30 10:15:01;;;;;;;10.23;5.30;;;;;;;;;;5794437;28;20065;-72
2023/11/30 10:17:52;;;;;;;8.15;5.72;;;;;;;;;;5794262;28;20358;-72
2023/11/30 10:20:43;;;;;;;11.35;5.30;;;;;;;;;;5824649;28;20046;-73
2023/11/30 10:23:34;;;;;;;10.65;4.35;;;;;;;;;;5792235;28;20432;-73
2023/11/30 10:26:25;;;;;;;8.07;4.53;;;;;;;;;;5793590;28;20121;-73
2023/11/30 10:29:20;;;;;;;7.25;4.32;;;;;;;;;;5824686;28;20058;-73
2023/11/30 10:32:13;;;;;;;7.25;4.55;;;;;;;;;;5808159;28;20058;-73
2023/11/30 10:35:06;;;;;;;7.13;5.00;;;;;;;;;;5793541;28;20046;-74
2023/11/30 10:37:58;;;;;;;13.48;4.15;;;;;;;;;;5794216;28;20447;-73
2023/11/30 10:40:55;;;;;;;9.73;7.50;;;;;;;;;;5824376;28;20045;-73
2023/11/30 10:43:51;;;;;;;14.73;5.63;;;;;;;;;;5823850;28;20047;-74
2023/11/30 10:46:44;;;;;;;8.10;4.85;;;;;;;;;;5807702;28;20081;-73
2023/11/30 10:49:36;;;;;;;5.15;2.85;;;;;;;;;;5823758;28;20046;-74
2023/11/30 10:52:28;;;;;;;13.75;6.95;;;;;;;;;;5808048;28;20054;-73
2023/11/30 10:55:21;;;;;;;6.30;3.65;;;;;;;;;;5824197;28;20050;-73
2023/11/30 10:58:12;;;;;;;17.95;8.32;;;;;;;;;;5807868;28;20058;-74
2023/11/30 11:01:03;;;;;;;13.02;7.28;;;;;;;;;;5808068;28;20050;-74
2023/11/30 11:03:55;;;;;;;7.10;4.22;;;;;;;;;;5824823;28;20420;-74
2023/11/30 11:06:46;;;;;;;8.43;3.25;;;;;;;;;;5807823;28;20419;-74
2023/11/30 11:09:53;;;;;;;4.82;3.22;;;;;;;;;;5793207;28;20198;-74
2023/11/30 11:12:49;;;;;;;11.32;3.45;;;;;;;;;;5793386;28;20105;-74
2023/11/30 11:15:40;;;;;;;6.55;3.83;;;;;;;;;;5823912;28;20066;-74
2023/11/30 11:18:33;;;;;;;9.73;2.88;;;;;;;;;;5823894;28;20129;-74
2023/11/30 11:21:25;;;;;;;6.20;3.03;;;;;;;;;;5823922;28;20463;-75
2023/11/30 11:24:22;;;;;;;9.65;3.20;;;;;;;;;;5824191;28;20054;-75
2023/11/30 11:27:31;;;;;;;4.13;2.67;;;;;;;;;;5824206;28;20420;-75
2023/11/30 11:30:26;;;;;;;8.13;3.13;;;;;;;;;;5791967;28;20504;-75
2023/11/30 11:33:19;;;;;;;4.80;3.25;;;;;;;;;;5793156;28;20063;-74
2023/11/30 11:36:13;;;;;;;5.97;3.67;;;;;;;;;;5795364;28;20055;-74
2023/11/30 11:39:05;;;;;;;6.25;4.03;;;;;;;;;;5797497;28;20042;-75
2023/11/30 11:41:56;;;;;;;9.98;4.38;;;;;;;;;;5797552;28;20051;-74
2023/11/30 11:44:50;;;;;;;4.53;2.65;;;;;;;;;;5828159;28;20047;-74
2023/11/30 11:47:41;;;;;;;4.47;2.60;;;;;;;;;;5827617;28;20675;-74
2023/11/30 11:50:31;;;;;;;7.72;3.28;;;;;;;;;;5796900;28;20043;-74
2023/11/30 11:53:22;;;;;;;3.55;3.17;;;;;;;;;;5797048;28;20125;-74
2023/11/30 11:56:13;;;;;;;8.00;3.40;;;;;;;;;;5827720;28;20054;-74
2023/11/30 11:59:04;;;;;;;8.05;3.00;;;;;;;;;;5811803;28;20047;-74
2023/11/30 12:01:57;;;;;;;2.53;2.20;;;;;;;;;;5828462;28;20412;-74
2023/11/30 12:04:48;;;;;;;8.23;3.35;;;;;;;;;;5811487;28;20043;-74
2023/11/30 12:07:57;;;;;;;6.88;2.55;;;;;;;;;;5827690;28;20122;-74
2023/11/30 12:10:50;;;;;;;6.57;2.88;;;;;;;;;;5796781;28;20413;-74
2023/11/30 12:13:41;;;;;;;5.45;3.33;;;;;;;;;;5796721;28;20062;-74
2023/11/30 12:16:34;;;;;;;11.35;4.35;;;;;;;;;;5827545;28;20057;-74
2023/11/30 12:19:25;;;;;;;2.13;1.60;;;;;;;;;;5796569;28;20489;-74
2023/11/30 12:22:16;;;;;;;4.18;2.70;;;;;;;;;;5811163;28;20051;-74
2023/11/30 12:25:07;;;;;;;3.05;2.72;;;;;;;;;;5811145;28;20061;-73
2023/11/30 12:27:58;;;;;;;7.22;3.42;;;;;;;;;;5827585;28;20054;-73
2023/11/30 12:30:48;;;;;;;3.05;2.47;;;;;;;;;;5796500;28;20043;-73
2023/11/30 12:33:39;;;;;;;4.25;2.75;;;;;;;;;;5827465;28;20561;-73
2023/11/30 12:36:30;;;;;;;3.05;1.85;;;;;;;;;;5796145;28;20129;-73
2023/11/30 12:39:21;;;;;;;5.53;2.15;;;;;;;;;;5796328;28;20057;-73
2023/11/30 12:42:12;;;;;;;13.70;2.50;;;;;;;;;;5827012;28;20065;-73
2023/11/30 12:45:04;;;;;;;3.28;2.08;;;;;;;;;;5826846;28;20521;-74
2023/11/30 12:47:55;;;;;;;1.92;1.33;;;;;;;;;;5795182;28;20039;-73
2023/11/30 12:50:46;;;;;;;3.22;2.08;;;;;;;;;;5827031;28;20046;-73
2023/11/30 12:53:39;;;;;;;5.00;2.17;;;;;;;;;;5826110;28;20069;-73
2023/11/30 12:56:30;;;;;;;2.30;1.70;;;;;;;;;;5826928;28;20050;-73
2023/11/30 12:59:21;;;;;;;3.13;1.63;;;;;;;;;;5810648;28;20055;-73
2023/11/30 13:02:12;;;;;;;2.03;1.52;;;;;;;;;;5810538;28;20051;-73
2023/11/30 13:05:03;;;;;;;1.77;1.45;;;;;;;;;;5826482;28;20389;-73
2023/11/30 13:07:55;;;;;;;4.10;1.65;;;;;;;;;;5796090;28;20043;-73
2023/11/30 13:10:46;;;;;;;3.30;2.53;;;;;;;;;;5795327;28;20050;-73
2023/11/30 13:13:37;;;;;;;3.05;2.00;;;;;;;;;;5810147;28;20478;-73
2023/11/30 13:16:35;;;;;;;2.72;2.35;;;;;;;;;;5795623;28;20197;-73
2023/11/30 13:19:25;;;;;;;5.03;2.08;;;;;;;;;;5826163;28;20062;-73
2023/11/30 13:22:16;;;;;;;1.92;1.40;;;;;;;;;;5825976;28;20054;-73
2023/11/30 13:25:09;;;;;;;4.18;2.35;;;;;;;;;;5826160;28;20070;-73
2023/11/30 13:28:00;;;;;;;4.95;2.28;;;;;;;;;;5795847;28;20039;-73
2023/11/30 13:30:51;;;;;;;7.25;2.13;;;;;;;;;;5810085;28;20734;-73
2023/11/30 13:33:43;;;;;;;4.88;3.00;;;;;;;;;;5825823;28;20047;-74
2023/11/30 13:36:34;;;;;;;3.80;3.03;;;;;;;;;;5795048;28;20062;-73
2023/11/30 13:39:26;;;;;;;5.00;2.95;;;;;;;;;;5794920;28;20070;-74
2023/11/30 13:42:17;;;;;;;4.40;3.35;;;;;;;;;;5793762;28;20130;-74
2023/11/30 13:45:08;;;;;;;5.80;3.00;;;;;;;;;;5825665;28;20414;-74
2023/11/30 13:47:59;;;;;;;2.85;2.20;;;;;;;;;;5794993;28;20063;-74
2023/11/30 13:50:49;;;;;;;8.80;2.55;;;;;;;;;;5825769;28;20053;-74
2023/11/30 13:53:49;;;;;;;3.33;2.15;;;;;;;;;;5808339;28;20041;-73
2023/11/30 13:56:40;;;;;;;1.73;1.58;;;;;;;;;;5809491;28;20042;-74
2023/11/30 13:59:31;;;;;;;5.43;2.35;;;;;;;;;;5824771;28;20065;-74
2023/11/30 14:02:21;;;;;;;4.38;3.38;;;;;;;;;;5825350;28;20053;-74
2023/11/30 14:05:12;;;;;;;8.63;3.25;;;;;;;;;;5825383;28;20069;-74
2023/11/30 14:08:04;;;;;;;10.60;4.50;;;;;;;;;;5809175;28;20043;-74
2023/11/30 14:10:54;;;;;;;8.82;2.85;;;;;;;;;;5809883;28;20074;-74
2023/11/30 14:13:45;;;;;;;7.68;3.90;;;;;;;;;;5794599;28;20042;-74
2023/11/30 14:16:37;;;;;;;8.13;5.07;;;;;;;;;;5809056;28;20522;-74
2023/11/30 14:19:28;;;;;;;12.73;3.50;;;;;;;;;;5794135;28;20413;-74
2023/11/30 14:22:19;;;;;;;13.98;6.28;;;;;;;;;;5793147;28;20432;-74
2023/11/30 14:25:12;;;;;;;13.75;5.80;;;;;;;;;;5825129;28;20051;-74
2023/11/30 14:28:04;;;;;;;20.02;7.40;;;;;;;;;;5794451;28;20054;-74
2023/11/30 14:31:02;;;;;;;16.38;4.97;;;;;;;;;;5822804;28;20057;-74
2023/11/30 14:33:53;;;;;;;22.98;6.60;;;;;;;;;;5794557;28;20125;-74
2023/11/30 14:36:44;;;;;;;27.15;6.75;;;;;;;;;;5794352;28;20074;-74
2023/11/30 14:39:35;;;;;;;17.90;7.00;;;;;;;;;;5824868;28;20194;-74
2023/11/30 14:42:26;;;;;;;16.92;7.72;;;;;;;;;;5792962;28;20054;-74
2023/11/30 14:45:16;;;;;;;29.77;10.07;;;;;;;;;;5824903;28;20059;-74
2023/11/30 14:48:07;;;;;;;53.67;17.98;;;;;;;;;;5808331;28;20087;-74
2023/11/30 14:50:58;;;;;;;36.60;15.57;;;;;;;;;;5794523;28;20052;-74
2023/11/30 14:53:49;;;;;;;38.85;11.02;;;;;;;;;;5795018;28;20050;-74
2023/11/30 14:56:40;;;;;;;31.63;10.25;;;;;;;;;;5795118;28;20047;-74
2023/11/30 14:59:31;;;;;;;26.02;9.10;;;;;;;;;;5826044;28;20046;-74
2023/11/30 15:02:22;;;;;;;26.50;7.15;;;;;;;;;;5809644;28;20053;-74
2023/11/30 15:05:14;;;;;;;12.73;5.72;;;;;;;;;;5826195;28;20054;-74
2023/11/30 15:08:05;;;;;;;10.50;5.47;;;;;;;;;;5795809;28;20069;-74
2023/11/30 15:10:56;;;;;;;7.95;4.72;;;;;;;;;;5831354;28;20178;-74
2023/11/30 15:13:47;;;;;;;16.88;7.32;;;;;;;;;;5830354;28;20118;-74
2023/11/30 15:16:40;;;;;;;13.88;6.75;;;;;;;;;;5829970;28;20047;-74
2023/11/30 15:19:30;;;;;;;11.70;5.88;;;;;;;;;;5829905;28;20050;-74
2023/11/30 15:22:21;;;;;;;30.60;9.23;;;;;;;;;;5830090;28;20406;-74
2023/11/30 15:25:16;;;;;;;30.27;11.60;;;;;;;;;;5799053;28;20133;-74
2023/11/30 15:28:10;;;;;;;13.13;6.88;;;;;;;;;;5797747;28;20198;-74
2023/11/30 15:31:01;;;;;;;19.88;7.97;;;;;;;;;;5798336;28;20417;-74
2023/11/30 15:33:52;;;;;;;18.45;9.82;;;;;;;;;;5829644;28;20097;-74
2023/11/30 15:36:43;;;;;;;23.23;11.10;;;;;;;;;;5813347;28;20043;-74
2023/11/30 15:39:34;;;;;;;23.33;9.00;;;;;;;;;;5797225;28;20046;-74
2023/11/30 15:42:28;;;;;;;21.17;6.93;;;;;;;;;;5828890;28;20673;-74
2023/11/30 15:45:23;;;;;;;23.38;9.95;;;;;;;;;;5798000;28;20058;-74
2023/11/30 15:48:14;;;;;;;16.48;6.28;;;;;;;;;;5812505;28;20042;-74
2023/11/30 15:51:06;;;;;;;19.90;7.35;;;;;;;;;;5830262;28;20216;-74
2023/11/30 15:53:59;;;;;;;24.77;7.60;;;;;;;;;;5799099;28;20501;-74
2023/11/30 15:56:51;;;;;;;29.98;7.50;;;;;;;;;;5798359;28;20075;-74
2023/11/30 15:59:43;;;;;;;18.90;8.07;;;;;;;;;;5828630;28;20047;-74
2023/11/30 16:02:35;;;;;;;13.82;7.75;;;;;;;;;;5812229;28;20047;-74
2023/11/30 16:05:28;;;;;;;13.88;7.03;;;;;;;;;;5827813;28;20126;-74
2023/11/30 16:08:19;;;;;;;24.23;9.60;;;;;;;;;;5827360;28;20062;-74
2023/11/30 16:11:13;;;;;;;91.93;29.25;;;;;;;;;;5827881;28;20066;-74
2023/11/30 16:14:04;;;;;;;101.45;39.60;;;;;;;;;;5827218;28;20047;-74
2023/11/30 16:16:55;;;;;;;106.55;46.63;;;;;;;;;;5797212;28;20404;-74
2023/11/30 16:19:45;;;;;;;103.32;42.60;;;;;;;;;;5795446;28;20039;-74
2023/11/30 16:22:38;;;;;;;92.70;34.70;;;;;;;;;;5796229;28;20050;-74
2023/11/30 16:25:29;;;;;;;83.55;33.15;;;;;;;;;;5827231;28;20389;-73
2023/11/30 16:28:20;;;;;;;75.63;26.70;;;;;;;;;;5796604;28;20082;-74
2023/11/30 16:31:12;;;;;;;55.65;19.92;;;;;;;;;;5796333;28;20066;-73
2023/11/30 16:34:03;;;;;;;50.83;18.88;;;;;;;;;;5811001;28;20074;-74
2023/11/30 16:36:54;;;;;;;49.50;16.42;;;;;;;;;;5811676;28;20071;-74
2023/11/30 16:39:46;;;;;;;47.60;19.33;;;;;;;;;;5827179;28;20454;-73
2023/11/30 16:42:37;;;;;;;43.35;15.85;;;;;;;;;;5794961;28;20053;-74
2023/11/30 16:45:27;;;;;;;46.25;19.77;;;;;;;;;;5810925;28;20129;-74
2023/11/30 16:48:18;;;;;;;60.67;21.67;;;;;;;;;;5827013;28;20050;-74
2023/11/30 16:51:09;;;;;;;38.97;17.40;;;;;;;;;;5827055;28;20055;-74
2023/11/30 16:54:00;;;;;;;28.20;15.35;;;;;;;;;;5811162;28;20058;-74
2023/11/30 16:56:51;;;;;;;45.55;21.40;;;;;;;;;;5794931;28;20042;-74